createdAt,value
2017-12-13T00:01:26.156Z,100638
2017-12-13T00:03:54.315Z,100635
2017-12-13T00:06:22.678Z,100622
2017-12-13T00:08:50.752Z,100631
2017-12-13T00:11:18.835Z,100630
2017-12-13T00:13:46.974Z,100626
2017-12-13T00:16:15.109Z,100618
2017-12-13T00:18:43.224Z,100620
2017-12-13T00:21:11.340Z,100626
2017-12-13T00:23:39.460Z,100624
2017-12-13T00:26:07.625Z,100620
2017-12-13T00:28:36.571Z,100619
2017-12-13T00:31:04.696Z,100610
2017-12-13T00:33:33.600Z,100601
2017-12-13T00:36:01.692Z,100612
2017-12-13T00:38:29.871Z,100600
2017-12-13T00:40:57.963Z,100603
2017-12-13T00:43:26.124Z,100604
2017-12-13T00:45:54.234Z,100596
2017-12-13T00:48:22.362Z,100596
2017-12-13T00:50:50.457Z,100583
2017-12-13T00:53:18.652Z,100591
2017-12-13T00:55:46.754Z,100591
2017-12-13T00:58:15.075Z,100563
2017-12-13T01:00:43.302Z,100579
2017-12-13T01:03:11.528Z,100570
2017-12-13T01:05:39.776Z,100566
2017-12-13T01:08:07.928Z,100571
2017-12-13T01:10:36.093Z,100568
2017-12-13T01:13:04.974Z,100567
2017-12-13T01:15:33.112Z,100567
2017-12-13T01:18:01.186Z,100561
2017-12-13T01:20:29.356Z,100555
2017-12-13T01:22:57.484Z,100551
2017-12-13T01:25:25.617Z,100565
2017-12-13T01:27:53.784Z,100555
2017-12-13T01:30:21.956Z,100549
2017-12-13T01:32:50.103Z,100556
2017-12-13T01:35:18.320Z,100558
2017-12-13T01:37:46.458Z,100556
2017-12-13T01:40:14.568Z,100551
2017-12-13T01:42:42.687Z,100550
2017-12-13T01:45:13.935Z,100547
2017-12-13T01:47:42.358Z,100542
2017-12-13T01:50:10.435Z,100538
2017-12-13T01:52:38.603Z,100536
2017-12-13T01:55:06.688Z,100528
2017-12-13T01:57:34.838Z,100528
2017-12-13T02:00:03.006Z,100523
2017-12-13T02:02:31.086Z,100531
2017-12-13T02:04:59.223Z,100515
2017-12-13T02:07:27.296Z,100522
2017-12-13T02:09:55.503Z,100515
2017-12-13T02:12:23.631Z,100500
2017-12-13T02:14:51.888Z,100510
2017-12-13T02:17:22.888Z,100498
2017-12-13T02:19:51.018Z,100499
2017-12-13T02:22:19.192Z,100493
2017-12-13T02:24:47.296Z,100481
2017-12-13T02:27:15.484Z,100476
2017-12-13T02:29:43.599Z,100485
2017-12-13T02:32:12.573Z,100478
2017-12-13T02:34:40.837Z,100473
2017-12-13T02:37:08.912Z,100478
2017-12-13T02:39:37.068Z,100460
2017-12-13T02:42:05.241Z,100457
2017-12-13T02:44:33.441Z,100450
2017-12-13T02:47:01.553Z,100444
2017-12-13T02:49:29.752Z,100455
2017-12-13T02:51:57.855Z,100461
2017-12-13T02:54:26.327Z,100469
2017-12-13T02:56:54.401Z,100448
2017-12-13T02:59:22.744Z,100443
2017-12-13T03:01:50.861Z,100423
2017-12-13T03:04:18.996Z,100421
2017-12-13T03:06:47.349Z,100420
2017-12-13T03:09:15.644Z,100424
2017-12-13T03:11:44.023Z,100411
2017-12-13T03:14:12.179Z,100408
2017-12-13T03:16:40.438Z,100395
2017-12-13T03:19:08.575Z,100398
2017-12-13T03:21:36.686Z,100390
2017-12-13T03:24:04.812Z,100384
2017-12-13T03:26:33.926Z,100389
2017-12-13T03:29:02.157Z,100375
2017-12-13T03:31:30.392Z,100378
2017-12-13T03:33:58.523Z,100366
2017-12-13T03:36:26.703Z,100352
2017-12-13T03:38:55.011Z,100366
2017-12-13T03:41:23.173Z,100364
2017-12-13T03:43:51.415Z,100352
2017-12-13T03:46:19.502Z,100356
2017-12-13T03:48:47.583Z,100360
2017-12-13T03:51:15.709Z,100344
2017-12-13T03:53:43.802Z,100334
2017-12-13T03:56:11.947Z,100339
2017-12-13T03:58:40.031Z,100326
2017-12-13T04:01:08.156Z,100324
2017-12-13T04:03:36.330Z,100320
2017-12-13T04:06:04.739Z,100297
2017-12-13T04:08:33.619Z,100321
2017-12-13T04:11:01.873Z,100315
2017-12-13T04:13:29.965Z,100307
2017-12-13T04:15:58.108Z,100299
2017-12-13T04:18:26.223Z,100295
2017-12-13T04:20:55.216Z,100293
2017-12-13T04:23:24.108Z,100288
2017-12-13T04:25:52.981Z,100296
2017-12-13T04:28:21.123Z,100293
2017-12-13T04:30:49.415Z,100287
2017-12-13T04:33:17.689Z,100288
2017-12-13T04:35:45.891Z,100267
2017-12-13T04:38:14.015Z,100277
2017-12-13T04:40:42.087Z,100274
2017-12-13T04:43:10.296Z,100262
2017-12-13T04:45:38.370Z,100259
2017-12-13T04:48:06.552Z,100257
2017-12-13T04:50:34.725Z,100260
2017-12-13T04:53:02.867Z,100248
2017-12-13T04:55:31.361Z,100249
2017-12-13T04:57:59.443Z,100244
2017-12-13T05:00:27.599Z,100236
2017-12-13T05:02:55.732Z,100236
2017-12-13T05:05:24.199Z,100231
2017-12-13T05:07:53.071Z,100238
2017-12-13T05:10:21.159Z,100240
2017-12-13T05:12:50.056Z,100223
2017-12-13T05:15:18.197Z,100221
2017-12-13T05:17:46.276Z,100213
2017-12-13T05:20:14.420Z,100216
2017-12-13T05:22:42.522Z,100224
2017-12-13T05:25:10.611Z,100207
2017-12-13T05:27:39.521Z,100204
2017-12-13T05:30:07.754Z,100197
2017-12-13T05:32:35.902Z,100197
2017-12-13T05:35:03.988Z,100197
2017-12-13T05:37:32.201Z,100181
2017-12-13T05:40:01.151Z,100186
2017-12-13T05:42:29.354Z,100171
2017-12-13T05:44:57.443Z,100171
2017-12-13T05:47:26.324Z,100158
2017-12-13T05:49:55.238Z,100154
2017-12-13T05:52:23.339Z,100158
2017-12-13T05:54:51.553Z,100148
2017-12-13T05:57:19.688Z,100146
2017-12-13T05:59:47.814Z,100138
2017-12-13T06:02:16.485Z,100131
2017-12-13T06:04:44.884Z,100117
2017-12-13T06:07:12.948Z,100124
2017-12-13T06:09:41.092Z,100117
2017-12-13T06:12:09.386Z,100106
2017-12-13T06:14:37.534Z,100109
2017-12-13T06:17:06.091Z,100101
2017-12-13T06:19:34.291Z,100100
2017-12-13T06:22:02.423Z,100104
2017-12-13T06:24:30.612Z,100099
2017-12-13T06:26:58.792Z,100094
2017-12-13T06:29:27.031Z,100081
2017-12-13T06:31:56.008Z,100067
2017-12-13T06:34:24.136Z,100062
2017-12-13T06:36:52.263Z,100054
2017-12-13T06:39:20.351Z,100051
2017-12-13T06:41:49.216Z,100041
2017-12-13T06:44:17.355Z,100043
2017-12-13T06:46:45.424Z,100039
2017-12-13T06:49:13.604Z,100042
2017-12-13T06:51:41.720Z,100044
2017-12-13T06:54:09.871Z,100027
2017-12-13T06:56:38.191Z,100018
2017-12-13T06:59:06.420Z,100017
2017-12-13T07:01:34.987Z,100018
2017-12-13T07:04:03.164Z,100016
2017-12-13T07:06:31.254Z,100009
2017-12-13T07:08:59.478Z,100016
2017-12-13T07:11:27.841Z,100002
2017-12-13T07:13:56.050Z,100014
2017-12-13T07:16:24.362Z,100009
2017-12-13T07:18:52.515Z,99999
2017-12-13T07:21:20.587Z,99997
2017-12-13T07:23:49.052Z,99997
2017-12-13T07:26:17.158Z,99995
2017-12-13T07:28:45.352Z,99981
2017-12-13T07:31:13.387Z,99980
2017-12-13T07:33:41.584Z,99982
2017-12-13T07:36:09.695Z,99974
2017-12-13T07:38:37.819Z,99967
2017-12-13T07:41:05.964Z,99957
2017-12-13T07:43:34.043Z,99952
2017-12-13T07:46:02.227Z,99951
2017-12-13T07:48:30.904Z,99944
2017-12-13T07:50:59.000Z,99940
2017-12-13T07:53:27.125Z,99931
2017-12-13T07:55:55.210Z,99932
2017-12-13T07:58:23.374Z,99918
2017-12-13T08:00:51.722Z,99920
2017-12-13T08:03:20.620Z,99919
2017-12-13T08:05:49.484Z,99899
2017-12-13T08:08:17.579Z,99896
2017-12-13T08:10:46.511Z,99890
2017-12-13T08:13:15.682Z,99888
2017-12-13T08:15:44.547Z,99871
2017-12-13T08:18:12.624Z,99874
2017-12-13T08:20:40.969Z,99858
2017-12-13T08:23:09.042Z,99853
2017-12-13T08:25:37.425Z,99845
2017-12-13T08:28:05.816Z,99836
2017-12-13T08:30:33.991Z,99838
2017-12-13T08:33:02.105Z,99836
2017-12-13T08:35:30.304Z,99827
2017-12-13T08:37:58.576Z,99833
2017-12-13T08:40:27.231Z,99836
2017-12-13T08:42:55.360Z,99830
2017-12-13T08:45:23.468Z,99821
2017-12-13T08:47:51.584Z,99819
2017-12-13T08:50:19.642Z,99811
2017-12-13T08:52:47.743Z,99807
2017-12-13T08:55:15.977Z,99806
2017-12-13T08:57:44.127Z,99801
2017-12-13T09:00:12.415Z,99800
2017-12-13T09:02:40.520Z,99810
2017-12-13T09:05:08.658Z,99800
2017-12-13T09:07:36.788Z,99794
2017-12-13T09:10:04.904Z,99787
2017-12-13T09:12:33.030Z,99783
2017-12-13T09:15:01.179Z,99783
2017-12-13T09:17:29.343Z,99759
2017-12-13T09:19:57.452Z,99755
2017-12-13T09:22:25.856Z,99749
2017-12-13T09:24:54.005Z,99734
2017-12-13T09:27:23.078Z,99737
2017-12-13T09:29:51.502Z,99740
2017-12-13T09:32:19.640Z,99726
2017-12-13T09:34:47.747Z,99732
2017-12-13T09:37:15.811Z,99727
2017-12-13T09:39:45.012Z,99722
2017-12-13T09:42:13.092Z,99709
2017-12-13T09:44:41.166Z,99710
2017-12-13T09:47:09.287Z,99701
2017-12-13T09:49:37.407Z,99692
2017-12-13T09:52:05.531Z,99705
2017-12-13T09:54:33.652Z,99692
2017-12-13T09:57:01.777Z,99689
2017-12-13T09:59:30.215Z,99678
2017-12-13T10:01:58.456Z,99677
2017-12-13T10:04:26.521Z,99658
2017-12-13T10:06:54.627Z,99655
2017-12-13T10:09:22.755Z,99646
2017-12-13T10:11:50.827Z,99645
2017-12-13T10:14:18.951Z,99647
2017-12-13T10:16:47.057Z,99625
2017-12-13T10:19:15.154Z,99624
2017-12-13T10:21:43.272Z,99618
2017-12-13T10:24:11.339Z,99605
2017-12-13T10:26:39.468Z,99582
2017-12-13T10:29:07.638Z,99581
2017-12-13T10:31:35.800Z,99566
2017-12-13T10:34:04.037Z,99563
2017-12-13T10:36:32.118Z,99548
2017-12-13T10:39:00.962Z,99545
2017-12-13T10:41:29.094Z,99537
2017-12-13T10:43:57.171Z,99526
2017-12-13T10:46:25.273Z,99532
2017-12-13T10:48:53.428Z,99518
2017-12-13T10:51:21.669Z,99514
2017-12-13T10:53:49.777Z,99503
2017-12-13T10:56:17.884Z,99495
2017-12-13T10:58:45.954Z,99492
2017-12-13T11:01:14.056Z,99486
2017-12-13T11:03:42.227Z,99472
2017-12-13T11:06:10.347Z,99474
2017-12-13T11:08:38.468Z,99464
2017-12-13T11:11:06.653Z,99459
2017-12-13T11:13:35.523Z,99451
2017-12-13T11:16:03.647Z,99448
2017-12-13T11:18:32.433Z,99431
2017-12-13T11:21:01.603Z,99419
2017-12-13T11:23:29.682Z,99418
2017-12-13T11:25:57.848Z,99403
2017-12-13T11:28:26.340Z,99323
2017-12-13T11:30:54.444Z,99401
2017-12-13T11:33:22.588Z,99381
2017-12-13T11:35:51.778Z,99389
2017-12-13T11:38:19.949Z,99378
2017-12-13T11:40:48.070Z,99374
2017-12-13T11:43:16.184Z,99361
2017-12-13T11:45:45.094Z,99359
2017-12-13T11:48:14.299Z,99345
2017-12-13T11:50:43.725Z,99337
2017-12-13T11:53:11.908Z,99339
2017-12-13T11:55:40.044Z,99326
2017-12-13T11:58:08.932Z,99323
2017-12-13T12:00:37.023Z,99317
2017-12-13T12:03:05.290Z,99310
2017-12-13T12:05:33.376Z,99304
2017-12-13T12:08:01.448Z,99294
2017-12-13T12:10:29.609Z,99289
2017-12-13T12:12:58.610Z,99281
2017-12-13T12:15:26.897Z,99277
2017-12-13T12:17:55.965Z,99266
2017-12-13T12:20:24.128Z,99275
2017-12-13T12:22:52.997Z,99267
2017-12-13T12:25:21.084Z,99259
2017-12-13T12:27:49.544Z,99255
2017-12-13T12:30:18.432Z,99259
2017-12-13T12:32:46.548Z,99237
2017-12-13T12:35:15.436Z,99244
2017-12-13T12:37:44.519Z,99249
2017-12-13T12:40:12.731Z,99234
2017-12-13T12:42:40.839Z,99242
2017-12-13T12:45:08.908Z,99234
2017-12-13T12:47:37.075Z,99227
2017-12-13T12:50:06.212Z,99219
2017-12-13T12:52:34.415Z,99204
2017-12-13T12:55:02.524Z,99213
2017-12-13T12:57:31.207Z,99206
2017-12-13T12:59:59.323Z,99208
2017-12-13T13:02:28.176Z,99211
2017-12-13T13:04:56.277Z,99205
2017-12-13T13:07:24.560Z,99191
2017-12-13T13:09:52.708Z,99184
2017-12-13T13:12:20.983Z,99186
2017-12-13T13:14:49.223Z,99185
2017-12-13T13:17:17.345Z,99174
2017-12-13T13:19:45.694Z,99172
2017-12-13T13:22:13.772Z,99184
2017-12-13T13:24:41.856Z,99174
2017-12-13T13:27:09.952Z,99183
2017-12-13T13:29:38.181Z,99174
2017-12-13T13:32:06.579Z,99173
2017-12-13T13:34:34.892Z,99170
2017-12-13T13:37:03.741Z,99162
2017-12-13T13:39:31.874Z,99156
2017-12-13T13:42:00.011Z,99172
2017-12-13T13:44:28.424Z,99156
2017-12-13T13:46:56.523Z,99156
2017-12-13T13:49:24.690Z,99152
2017-12-13T13:51:52.787Z,99158
2017-12-13T13:54:20.878Z,99149
2017-12-13T13:56:49.010Z,99147
2017-12-13T13:59:17.074Z,99145
2017-12-13T14:01:45.889Z,99152
2017-12-13T14:04:13.991Z,99149
2017-12-13T14:06:42.088Z,99147
2017-12-13T14:09:10.177Z,99138
2017-12-13T14:11:38.392Z,99139
2017-12-13T14:14:06.688Z,99142
2017-12-13T14:16:35.420Z,99133
2017-12-13T14:19:03.531Z,99134
2017-12-13T14:21:31.666Z,99129
2017-12-13T14:23:59.895Z,99121
2017-12-13T14:26:27.986Z,99128
2017-12-13T14:28:56.098Z,99121
2017-12-13T14:31:24.200Z,99119
2017-12-13T14:33:52.369Z,99125
2017-12-13T14:36:20.590Z,99122
2017-12-13T14:38:48.845Z,99127
2017-12-13T14:41:16.968Z,99108
2017-12-13T14:43:45.040Z,99113
2017-12-13T14:46:13.168Z,99118
2017-12-13T14:48:42.424Z,99119
2017-12-13T14:51:10.575Z,99117
2017-12-13T14:53:38.668Z,99108
2017-12-13T14:56:06.806Z,99109
2017-12-13T14:58:34.928Z,99099
2017-12-13T15:01:03.065Z,99115
2017-12-13T15:03:31.180Z,99105
2017-12-13T15:05:59.285Z,99104
2017-12-13T15:08:28.269Z,99091
2017-12-13T15:10:57.376Z,99100
2017-12-13T15:13:25.487Z,99096
2017-12-13T15:15:53.584Z,99086
2017-12-13T15:18:21.724Z,99080
2017-12-13T15:20:49.847Z,99085
2017-12-13T15:23:18.012Z,99074
2017-12-13T15:25:46.646Z,99075
2017-12-13T15:28:14.999Z,99072
2017-12-13T15:30:44.652Z,99067
2017-12-13T15:33:13.691Z,99061
2017-12-13T15:35:42.529Z,99058
2017-12-13T15:38:10.598Z,99063
2017-12-13T15:40:38.732Z,99053
2017-12-13T15:43:07.083Z,99051
2017-12-13T15:45:35.349Z,99041
2017-12-13T15:48:03.440Z,99033
2017-12-13T15:50:31.560Z,99025
2017-12-13T15:53:00.604Z,99024
2017-12-13T15:55:28.720Z,99014
2017-12-13T15:57:56.831Z,99019
2017-12-13T16:00:24.928Z,99016
2017-12-13T16:02:53.119Z,99006
2017-12-13T16:05:21.989Z,99009
2017-12-13T16:07:50.219Z,99014
2017-12-13T16:10:18.444Z,99010
2017-12-13T16:12:46.514Z,98996
2017-12-13T16:15:14.625Z,98988
2017-12-13T16:17:42.847Z,98990
2017-12-13T16:20:11.020Z,98984
2017-12-13T16:22:39.097Z,98970
2017-12-13T16:25:07.363Z,98968
2017-12-13T16:27:36.645Z,98968
2017-12-13T16:30:04.802Z,98959
2017-12-13T16:32:33.897Z,98956
2017-12-13T16:35:02.047Z,98949
2017-12-13T16:37:30.138Z,98941
2017-12-13T16:39:58.588Z,98936
2017-12-13T16:42:26.679Z,98932
2017-12-13T16:44:54.792Z,98922
2017-12-13T16:47:22.860Z,98912
2017-12-13T16:49:51.818Z,98904
2017-12-13T16:52:21.717Z,98901
2017-12-13T16:54:49.785Z,98893
2017-12-13T16:57:17.909Z,98884
2017-12-13T16:59:46.008Z,98876
2017-12-13T17:02:14.207Z,98867
2017-12-13T17:04:42.512Z,98860
2017-12-13T17:07:10.593Z,98858
2017-12-13T17:09:38.721Z,98853
2017-12-13T17:12:06.891Z,98845
2017-12-13T17:14:34.975Z,98840
2017-12-13T17:17:03.097Z,98830
2017-12-13T17:19:31.246Z,98818
2017-12-13T17:21:59.380Z,98814
2017-12-13T17:24:27.659Z,98803
2017-12-13T17:26:55.783Z,98798
2017-12-13T17:29:23.864Z,98780
2017-12-13T17:31:52.066Z,98776
2017-12-13T17:34:20.244Z,98773
2017-12-13T17:36:48.316Z,98770
2017-12-13T17:39:16.432Z,98758
2017-12-13T17:41:44.559Z,98744
2017-12-13T17:44:12.971Z,98746
2017-12-13T17:46:41.278Z,98728
2017-12-13T17:49:10.152Z,98729
2017-12-13T17:51:38.976Z,98718
2017-12-13T17:54:07.756Z,98701
2017-12-13T17:56:35.834Z,98691
2017-12-13T17:59:03.997Z,98704
2017-12-13T18:01:32.084Z,98691
2017-12-13T18:04:00.316Z,98677
2017-12-13T18:06:28.428Z,98667
2017-12-13T18:08:56.496Z,98665
2017-12-13T18:11:24.619Z,98656
2017-12-13T18:13:52.799Z,98638
2017-12-13T18:16:22.504Z,98643
2017-12-13T18:18:51.400Z,98625
2017-12-13T18:21:20.381Z,98621
2017-12-13T18:23:48.776Z,98613
2017-12-13T18:26:17.018Z,98610
2017-12-13T18:28:46.193Z,98591
2017-12-13T18:31:14.288Z,98589
2017-12-13T18:33:42.436Z,98577
2017-12-13T18:36:10.501Z,98555
2017-12-13T18:38:38.632Z,98551
2017-12-13T18:41:07.555Z,98549
2017-12-13T18:43:35.680Z,98534
2017-12-13T18:46:03.859Z,98531
2017-12-13T18:48:31.952Z,98514
2017-12-13T18:51:00.082Z,98511
2017-12-13T18:53:28.191Z,98500
2017-12-13T18:55:57.864Z,98484
2017-12-13T18:58:26.860Z,98464
2017-12-13T19:00:54.961Z,98463
2017-12-13T19:03:23.085Z,98448
2017-12-13T19:05:51.253Z,98431
2017-12-13T19:08:19.319Z,98421
2017-12-13T19:10:47.611Z,98419
2017-12-13T19:13:15.692Z,98400
2017-12-13T19:15:47.189Z,98387
2017-12-13T19:18:16.044Z,98367
2017-12-13T19:20:44.163Z,98369
2017-12-13T19:23:12.307Z,98352
2017-12-13T19:25:40.411Z,98342
2017-12-13T19:28:09.274Z,98344
2017-12-13T19:30:37.378Z,98336
2017-12-13T19:33:07.111Z,98336
2017-12-13T19:35:35.404Z,98328
2017-12-13T19:38:03.535Z,98317
2017-12-13T19:40:32.489Z,98314
2017-12-13T19:43:00.571Z,98315
2017-12-13T19:45:28.803Z,98308
2017-12-13T19:47:57.011Z,98310
2017-12-13T19:50:25.119Z,98311
2017-12-13T19:52:53.990Z,98313
2017-12-13T19:55:22.089Z,98288
2017-12-13T19:57:50.255Z,98292
2017-12-13T20:00:18.316Z,98274
2017-12-13T20:02:47.157Z,98272
2017-12-13T20:05:15.298Z,98243
2017-12-13T20:07:43.366Z,98235
2017-12-13T20:10:13.048Z,98232
2017-12-13T20:12:41.218Z,98219
2017-12-13T20:15:17.017Z,98220
2017-12-13T20:17:45.102Z,98196
2017-12-13T20:20:13.704Z,98187
2017-12-13T20:22:41.766Z,98190
2017-12-13T20:25:09.884Z,98166
2017-12-13T20:27:38.784Z,98166
2017-12-13T20:30:06.860Z,98164
2017-12-13T20:32:35.743Z,98141
2017-12-13T20:35:04.604Z,98128
2017-12-13T20:37:33.454Z,98114
2017-12-13T20:40:01.668Z,98105
2017-12-13T20:42:29.856Z,98091
2017-12-13T20:44:58.400Z,98086
2017-12-13T20:47:26.682Z,98073
2017-12-13T20:49:54.756Z,98063
2017-12-13T20:52:22.844Z,98064
2017-12-13T20:54:51.034Z,98070
2017-12-13T20:57:19.142Z,98064
2017-12-13T20:59:47.261Z,98041
2017-12-13T21:02:15.356Z,98007
2017-12-13T21:04:43.509Z,98007
2017-12-13T21:07:11.710Z,98010
2017-12-13T21:09:40.572Z,98031
2017-12-13T21:12:08.717Z,98018
2017-12-13T21:14:38.556Z,98021
2017-12-13T21:17:06.667Z,98009
2017-12-13T21:19:34.847Z,98029
2017-12-13T21:22:02.924Z,98027
2017-12-13T21:24:31.049Z,98061
2017-12-13T21:26:59.113Z,98068
2017-12-13T21:29:27.183Z,98097
2017-12-13T21:31:55.305Z,98095
2017-12-13T21:34:23.390Z,98141
2017-12-13T21:36:51.495Z,98103
2017-12-13T21:39:19.612Z,98075
2017-12-13T21:41:48.463Z,98066
2017-12-13T21:44:16.620Z,98100
2017-12-13T21:46:44.780Z,98098
2017-12-13T21:49:12.941Z,98105
2017-12-13T21:51:41.100Z,98094
2017-12-13T21:54:10.048Z,98081
2017-12-13T21:56:38.154Z,98121
2017-12-13T21:59:06.336Z,98115
2017-12-13T22:01:34.408Z,98122
2017-12-13T22:04:02.568Z,98127
2017-12-13T22:06:33.055Z,98126
2017-12-13T22:09:02.928Z,98140
2017-12-13T22:11:35.874Z,98139
2017-12-13T22:14:04.067Z,98149
2017-12-13T22:16:32.144Z,98160
2017-12-13T22:19:00.334Z,98163
2017-12-13T22:21:29.175Z,98180
2017-12-13T22:23:59.420Z,98170
2017-12-13T22:26:27.589Z,98190
2017-12-13T22:28:55.767Z,98198
2017-12-13T22:31:24.037Z,98216
2017-12-13T22:33:52.196Z,98213
2017-12-13T22:36:21.332Z,98207
2017-12-13T22:38:54.145Z,98214
2017-12-13T22:41:22.273Z,98226
2017-12-13T22:43:50.389Z,98219
2017-12-13T22:46:18.492Z,98232
2017-12-13T22:48:46.706Z,98228
2017-12-13T22:51:14.847Z,98229
2017-12-13T22:53:42.940Z,98231
2017-12-13T22:56:11.064Z,98244
2017-12-13T22:58:39.179Z,98216
2017-12-13T23:04:23.277Z,98228
2017-12-13T23:06:52.114Z,98248
2017-12-13T23:09:20.292Z,98245
2017-12-13T23:11:48.383Z,98253
2017-12-13T23:14:16.559Z,98238
2017-12-13T23:16:44.722Z,98247
2017-12-13T23:19:16.279Z,98248
2017-12-13T23:21:44.377Z,98259
2017-12-13T23:24:12.460Z,98256
2017-12-13T23:26:41.445Z,98240
2017-12-13T23:29:09.556Z,98243
2017-12-13T23:31:37.640Z,98225
2017-12-13T23:34:05.793Z,98217
2017-12-13T23:36:33.928Z,98236
2017-12-13T23:39:02.027Z,98223
2017-12-13T23:41:30.269Z,98223
2017-12-13T23:43:58.950Z,98212
2017-12-13T23:46:27.080Z,98221
2017-12-13T23:48:58.544Z,98232
2017-12-13T23:51:27.061Z,98243
2017-12-13T23:53:55.192Z,98245
2017-12-13T23:56:23.316Z,98247
2017-12-13T23:58:51.394Z,98258
